Time;durP1;ratioP1;P1;durP2;ratioP2;P2;SDS_P1;SDS_P2;PMS_P1;PMS_P2;Temp;Humidity;BMP_temperature;BMP_pressure;BME280_temperature;BME280_humidity;BME280_pressure;Samples;Min_cycle;Max_cycle;Signal;HPM_P1;HPM_P2
2024/01/18 00:00:07;;;;;;;0.17;0.17;;;;;;;;;;5055520;28;20044;-83
2024/01/18 00:02:33;;;;;;;0.10;0.10;;;;;;;;;;5055676;28;20083;-84
2024/01/18 00:04:59;;;;;;;0.30;0.20;;;;;;;;;;5072319;28;20036;-84
2024/01/18 00:07:25;;;;;;;0.10;0.10;;;;;;;;;;5072003;28;20040;-85
2024/01/18 00:09:51;;;;;;;0.10;0.10;;;;;;;;;;5055643;28;20048;-84
2024/01/18 00:12:17;;;;;;;0.20;0.20;;;;;;;;;;5055285;28;20038;-84
2024/01/18 00:14:43;;;;;;;0.10;0.10;;;;;;;;;;5055370;28;20032;-84
2024/01/18 00:17:09;;;;;;;0.75;0.75;;;;;;;;;;5071915;28;20040;-84
2024/01/18 00:19:35;;;;;;;0.20;0.20;;;;;;;;;;5071856;28;20063;-84
2024/01/18 00:22:02;;;;;;;0.10;0.10;;;;;;;;;;5071868;28;20040;-84
2024/01/18 00:24:28;;;;;;;0.10;0.10;;;;;;;;;;5054751;28;20051;-84
2024/01/18 00:26:54;;;;;;;0.20;0.20;;;;;;;;;;5071567;28;20119;-84
2024/01/18 00:29:20;;;;;;;0.10;0.10;;;;;;;;;;5071563;28;20124;-84
2024/01/18 00:31:46;;;;;;;0.20;0.20;;;;;;;;;;5055185;28;20448;-84
2024/01/18 00:34:12;;;;;;;0.10;0.10;;;;;;;;;;5054909;28;20119;-83
2024/01/18 00:36:38;;;;;;;0.10;0.10;;;;;;;;;;5054886;28;20036;-83
2024/01/18 00:39:10;;;;;;;0.10;0.10;;;;;;;;;;5088420;28;20079;-84
2024/01/18 00:41:39;;;;;;;0.10;0.10;;;;;;;;;;5088463;28;20066;-83
2024/01/18 00:44:05;;;;;;;0.10;0.10;;;;;;;;;;5071367;28;20044;-84
2024/01/18 00:46:31;;;;;;;0.10;0.10;;;;;;;;;;5071259;28;20530;-84
2024/01/18 00:48:57;;;;;;;0.10;0.10;;;;;;;;;;5071131;28;20061;-84
2024/01/18 00:51:23;;;;;;;0.10;0.10;;;;;;;;;;5054605;28;20040;-84
2024/01/18 00:53:49;;;;;;;0.15;0.15;;;;;;;;;;5071189;28;20055;-83
2024/01/18 00:56:15;;;;;;;0.20;0.20;;;;;;;;;;5054869;28;20047;-83
2024/01/18 00:58:41;;;;;;;0.10;0.10;;;;;;;;;;5054645;28;20463;-83
2024/01/18 01:01:07;;;;;;;0.10;0.10;;;;;;;;;;5054847;28;20052;-83
2024/01/18 01:03:33;;;;;;;0.10;0.10;;;;;;;;;;5070999;28;20102;-83
2024/01/18 01:05:59;;;;;;;0.10;0.10;;;;;;;;;;5071067;28;20044;-84
2024/01/18 01:08:26;;;;;;;0.10;0.10;;;;;;;;;;5054342;28;20367;-84
2024/01/18 01:10:52;;;;;;;0.10;0.10;;;;;;;;;;5054328;28;20040;-83
2024/01/18 01:13:18;;;;;;;0.10;0.10;;;;;;;;;;5071150;28;20162;-84
2024/01/18 01:15:44;;;;;;;0.20;0.20;;;;;;;;;;5054304;28;20072;-83
2024/01/18 01:18:11;;;;;;;0.10;0.10;;;;;;;;;;5070808;28;20480;-83
2024/01/18 01:20:37;;;;;;;0.10;0.10;;;;;;;;;;5054410;28;20076;-83
2024/01/18 01:23:03;;;;;;;0.20;0.20;;;;;;;;;;5070655;28;20045;-84
2024/01/18 01:25:29;;;;;;;0.10;0.10;;;;;;;;;;5054462;28;20356;-84
2024/01/18 01:27:55;;;;;;;0.10;0.10;;;;;;;;;;5070750;28;20032;-84
2024/01/18 01:30:21;;;;;;;0.10;0.10;;;;;;;;;;5070953;28;20041;-84
2024/01/18 01:32:47;;;;;;;0.10;0.10;;;;;;;;;;5070745;28;20124;-84
2024/01/18 01:35:14;;;;;;;0.10;0.10;;;;;;;;;;5054989;28;20128;-82
2024/01/18 01:37:39;;;;;;;0.30;0.30;;;;;;;;;;5058619;28;20044;-83
2024/01/18 01:40:06;;;;;;;0.10;0.10;;;;;;;;;;5075067;28;20051;-83
2024/01/18 01:42:32;;;;;;;0.32;0.32;;;;;;;;;;5074718;28;20123;-83
2024/01/18 01:44:58;;;;;;;0.10;0.10;;;;;;;;;;5074987;28;20069;-83
2024/01/18 01:47:24;;;;;;;0.10;0.10;;;;;;;;;;5057897;28;20032;-83
2024/01/18 01:49:50;;;;;;;0.10;0.10;;;;;;;;;;5074579;28;20479;-83
2024/01/18 01:52:16;;;;;;;0.10;0.10;;;;;;;;;;5057945;28;20033;-83
2024/01/18 01:54:42;;;;;;;0.20;0.20;;;;;;;;;;5057995;28;20062;-82
2024/01/18 01:57:08;;;;;;;0.13;0.13;;;;;;;;;;5058036;28;20040;-84
2024/01/18 01:59:34;;;;;;;0.13;0.13;;;;;;;;;;5057854;28;20391;-84
2024/01/18 02:02:00;;;;;;;0.10;0.10;;;;;;;;;;5058157;28;20387;-84
2024/01/18 02:04:26;;;;;;;0.10;0.10;;;;;;;;;;5057689;28;20496;-84
2024/01/18 02:06:52;;;;;;;0.10;0.10;;;;;;;;;;5057663;28;20048;-84
2024/01/18 02:09:18;;;;;;;0.10;0.10;;;;;;;;;;5058201;28;20127;-84
2024/01/18 02:11:44;;;;;;;0.10;0.10;;;;;;;;;;5057658;28;20036;-85
2024/01/18 02:14:10;;;;;;;0.10;0.10;;;;;;;;;;5074271;28;20502;-84
2024/01/18 02:16:36;;;;;;;0.10;0.10;;;;;;;;;;5057569;28;20044;-84
2024/01/18 02:19:02;;;;;;;0.10;0.10;;;;;;;;;;5074376;28;20072;-86
2024/01/18 02:21:28;;;;;;;0.10;0.10;;;;;;;;;;5057434;28;20617;-83
2024/01/18 02:24:15;;;;;;;0.30;0.30;;;;;;;;;;5073891;28;20040;-83
2024/01/18 02:26:41;;;;;;;0.10;0.10;;;;;;;;;;5074241;28;20475;-84
2024/01/18 02:29:07;;;;;;;0.10;0.10;;;;;;;;;;5057387;28;20051;-84
2024/01/18 02:31:33;;;;;;;0.10;0.10;;;;;;;;;;5057517;28;20043;-84
2024/01/18 02:33:59;;;;;;;0.10;0.10;;;;;;;;;;5090713;28;20056;-84
2024/01/18 02:36:25;;;;;;;0.10;0.10;;;;;;;;;;5073987;28;20149;-83
2024/01/18 02:38:51;;;;;;;0.10;0.10;;;;;;;;;;5073749;28;20128;-84
2024/01/18 02:41:17;;;;;;;0.10;0.10;;;;;;;;;;5073598;28;20048;-84
2024/01/18 02:43:43;;;;;;;0.10;0.10;;;;;;;;;;5073745;28;20040;-85
2024/01/18 02:46:09;;;;;;;0.15;0.15;;;;;;;;;;5057085;28;20128;-84
2024/01/18 02:48:36;;;;;;;0.10;0.10;;;;;;;;;;5056003;28;20088;-85
2024/01/18 02:51:03;;;;;;;0.10;0.10;;;;;;;;;;5056907;28;20037;-85
2024/01/18 02:53:29;;;;;;;0.10;0.10;;;;;;;;;;5057343;28;20094;-84
2024/01/18 02:55:55;;;;;;;0.10;0.10;;;;;;;;;;5073708;28;20044;-84
2024/01/18 02:58:21;;;;;;;0.13;0.13;;;;;;;;;;5073355;28;20044;-84
2024/01/18 03:00:47;;;;;;;0.10;0.10;;;;;;;;;;5073160;28;20511;-84
2024/01/18 03:03:14;;;;;;;0.10;0.10;;;;;;;;;;5073357;28;20481;-84
2024/01/18 03:05:40;;;;;;;0.10;0.10;;;;;;;;;;5057005;28;20048;-84
2024/01/18 03:08:06;;;;;;;0.10;0.10;;;;;;;;;;5056591;28;20040;-83
2024/01/18 03:10:33;;;;;;;0.10;0.10;;;;;;;;;;5073053;28;20040;-84
2024/01/18 03:12:59;;;;;;;0.10;0.10;;;;;;;;;;5056596;28;20047;-83
2024/01/18 03:15:25;;;;;;;0.10;0.10;;;;;;;;;;5072984;28;20048;-84
2024/01/18 03:17:51;;;;;;;0.10;0.10;;;;;;;;;;5073232;28;20052;-84
2024/01/18 03:20:17;;;;;;;0.20;0.20;;;;;;;;;;5073169;28;20431;-83
2024/01/18 03:22:43;;;;;;;0.10;0.10;;;;;;;;;;5072942;28;20037;-83
2024/01/18 03:25:09;;;;;;;0.10;0.10;;;;;;;;;;5056244;28;20060;-84
2024/01/18 03:27:35;;;;;;;0.10;0.10;;;;;;;;;;5056190;28;20127;-84
2024/01/18 03:30:01;;;;;;;0.10;0.10;;;;;;;;;;5056328;28;20128;-84
2024/01/18 03:32:27;;;;;;;0.10;0.10;;;;;;;;;;5072592;28;20033;-84
2024/01/18 03:34:53;;;;;;;0.10;0.10;;;;;;;;;;5074116;28;20060;-84
2024/01/18 03:37:19;;;;;;;0.22;0.22;;;;;;;;;;5072742;28;20052;-83
2024/01/18 03:39:45;;;;;;;0.10;0.10;;;;;;;;;;5073020;28;20085;-84
2024/01/18 03:42:11;;;;;;;0.10;0.10;;;;;;;;;;5072352;28;20078;-83
2024/01/18 03:44:37;;;;;;;0.10;0.10;;;;;;;;;;5055605;28;20040;-84
2024/01/18 03:47:04;;;;;;;0.10;0.10;;;;;;;;;;5072360;28;20194;-84
2024/01/18 03:49:30;;;;;;;0.10;0.10;;;;;;;;;;5055556;28;20082;-83
2024/01/18 03:51:56;;;;;;;0.10;0.10;;;;;;;;;;5055610;28;20044;-84
2024/01/18 03:54:23;;;;;;;0.10;0.10;;;;;;;;;;5055690;28;20055;-84
2024/01/18 03:56:49;;;;;;;0.10;0.10;;;;;;;;;;5072426;28;20054;-82
2024/01/18 03:59:15;;;;;;;0.10;0.10;;;;;;;;;;5072461;28;20119;-84
2024/01/18 04:01:41;;;;;;;0.10;0.10;;;;;;;;;;5072105;28;20044;-84
2024/01/18 04:04:08;;;;;;;0.20;0.20;;;;;;;;;;5055458;28;20044;-84
2024/01/18 04:06:34;;;;;;;0.10;0.10;;;;;;;;;;5072099;28;20044;-84
2024/01/18 04:09:00;;;;;;;0.10;0.10;;;;;;;;;;5055787;28;20090;-84
2024/01/18 04:11:26;;;;;;;0.10;0.10;;;;;;;;;;5071817;28;20050;-83
2024/01/18 04:13:52;;;;;;;0.10;0.10;;;;;;;;;;5055454;28;20119;-83
2024/01/18 04:16:18;;;;;;;0.10;0.10;;;;;;;;;;5055346;28;20123;-83
2024/01/18 04:18:44;;;;;;;0.28;0.28;;;;;;;;;;5055208;28;20119;-83
2024/01/18 04:21:10;;;;;;;0.10;0.10;;;;;;;;;;5055147;28;20083;-83
2024/01/18 04:23:36;;;;;;;0.10;0.10;;;;;;;;;;5055082;28;20067;-83
2024/01/18 04:26:02;;;;;;;0.10;0.10;;;;;;;;;;5071921;28;20040;-83
2024/01/18 04:28:28;;;;;;;0.10;0.10;;;;;;;;;;5071783;28;20048;-83
2024/01/18 04:30:54;;;;;;;0.10;0.10;;;;;;;;;;5071517;28;20548;-83
2024/01/18 04:33:20;;;;;;;0.10;0.10;;;;;;;;;;5055147;28;20048;-84
2024/01/18 04:35:46;;;;;;;0.10;0.10;;;;;;;;;;5071634;28;20098;-84
2024/01/18 04:38:13;;;;;;;0.10;0.10;;;;;;;;;;5071380;28;20040;-84
2024/01/18 04:40:39;;;;;;;0.10;0.10;;;;;;;;;;5071559;28;20128;-84
2024/01/18 04:43:05;;;;;;;0.10;0.10;;;;;;;;;;5054652;28;20047;-84
2024/01/18 04:45:31;;;;;;;0.10;0.10;;;;;;;;;;5055019;28;20036;-84
2024/01/18 04:47:57;;;;;;;0.10;0.10;;;;;;;;;;5070989;28;20476;-85
2024/01/18 04:50:26;;;;;;;0.10;0.10;;;;;;;;;;5054856;28;20387;-84
2024/01/18 04:52:55;;;;;;;0.10;0.10;;;;;;;;;;5055259;28;20059;-85
2024/01/18 04:55:21;;;;;;;0.10;0.10;;;;;;;;;;5071215;28;20545;-84
2024/01/18 04:57:47;;;;;;;0.10;0.10;;;;;;;;;;5071047;28;20041;-84
2024/01/18 05:00:13;;;;;;;0.10;0.10;;;;;;;;;;5071180;28;20539;-84
2024/01/18 05:02:42;;;;;;;0.10;0.10;;;;;;;;;;5070914;28;20136;-85
2024/01/18 05:05:08;;;;;;;0.10;0.10;;;;;;;;;;5070895;28;20042;-84
2024/01/18 05:07:44;;;;;;;0.10;0.10;;;;;;;;;;5071158;28;20079;-84
2024/01/18 05:10:10;;;;;;;0.10;0.10;;;;;;;;;;5070612;28;20052;-84
2024/01/18 05:12:36;;;;;;;0.10;0.10;;;;;;;;;;5054629;28;20048;-84
2024/01/18 05:15:03;;;;;;;0.10;0.10;;;;;;;;;;5071068;28;20102;-84
2024/01/18 05:17:35;;;;;;;0.10;0.10;;;;;;;;;;5070830;28;20048;-84
2024/01/18 05:20:04;;;;;;;0.10;0.10;;;;;;;;;;5055104;28;20079;-84
2024/01/18 05:22:31;;;;;;;0.10;0.10;;;;;;;;;;5054497;28;20033;-84
2024/01/18 05:24:57;;;;;;;0.10;0.10;;;;;;;;;;5054226;28;20048;-84
2024/01/18 05:27:24;;;;;;;0.10;0.10;;;;;;;;;;5054608;28;20392;-85
2024/01/18 05:29:51;;;;;;;0.10;0.10;;;;;;;;;;5072066;28;20392;-84
2024/01/18 05:32:17;;;;;;;0.10;0.10;;;;;;;;;;5070672;28;20045;-84
2024/01/18 05:34:43;;;;;;;0.10;0.10;;;;;;;;;;5054057;28;20067;-84
2024/01/18 05:37:09;;;;;;;0.10;0.10;;;;;;;;;;5071739;28;20475;-85
2024/01/18 05:39:35;;;;;;;0.10;0.10;;;;;;;;;;5070563;28;20056;-85
2024/01/18 05:42:02;;;;;;;0.10;0.10;;;;;;;;;;5070888;28;20040;-84
2024/01/18 05:44:28;;;;;;;0.10;0.10;;;;;;;;;;5070634;28;20063;-84
2024/01/18 05:46:54;;;;;;;0.10;0.10;;;;;;;;;;5070702;28;20044;-84
2024/01/18 05:49:21;;;;;;;0.10;0.10;;;;;;;;;;5070459;28;20122;-84
2024/01/18 05:51:47;;;;;;;0.10;0.10;;;;;;;;;;5053875;28;20510;-84
2024/01/18 05:54:13;;;;;;;0.10;0.10;;;;;;;;;;5053944;28;20124;-84
2024/01/18 05:56:40;;;;;;;0.10;0.10;;;;;;;;;;5070465;28;20495;-84
2024/01/18 05:59:06;;;;;;;0.10;0.10;;;;;;;;;;5054177;28;20066;-84
2024/01/18 06:01:32;;;;;;;0.10;0.10;;;;;;;;;;5070684;28;20464;-84
2024/01/18 06:03:58;;;;;;;0.10;0.10;;;;;;;;;;5053816;28;20044;-84
2024/01/18 06:06:24;;;;;;;0.10;0.10;;;;;;;;;;5054406;28;20423;-84
2024/01/18 06:08:51;;;;;;;0.10;0.10;;;;;;;;;;5070634;28;20388;-84
2024/01/18 06:11:18;;;;;;;0.10;0.10;;;;;;;;;;5071599;28;20439;-84
2024/01/18 06:13:44;;;;;;;0.10;0.10;;;;;;;;;;5070611;28;20444;-84
2024/01/18 06:16:10;;;;;;;0.10;0.10;;;;;;;;;;5070304;28;20436;-84
2024/01/18 06:18:37;;;;;;;0.10;0.10;;;;;;;;;;5053754;28;20044;-84
2024/01/18 06:21:04;;;;;;;0.10;0.10;;;;;;;;;;5053833;28;20377;-83
2024/01/18 06:23:30;;;;;;;0.10;0.10;;;;;;;;;;5072837;28;20044;-84
2024/01/18 06:25:56;;;;;;;0.10;0.10;;;;;;;;;;5074500;28;20079;-84
2024/01/18 06:28:22;;;;;;;0.10;0.10;;;;;;;;;;5073869;28;20068;-84
2024/01/18 06:30:48;;;;;;;0.10;0.10;;;;;;;;;;5073822;28;20349;-83
2024/01/18 06:33:14;;;;;;;0.10;0.10;;;;;;;;;;5073821;28;20040;-84
2024/01/18 06:35:40;;;;;;;0.10;0.10;;;;;;;;;;5073780;28;20480;-84
2024/01/18 06:38:06;;;;;;;0.10;0.10;;;;;;;;;;5073853;28;20052;-83
2024/01/18 06:40:32;;;;;;;0.10;0.10;;;;;;;;;;5073627;28;20471;-83
2024/01/18 06:42:58;;;;;;;0.10;0.10;;;;;;;;;;5073695;28;20123;-84
2024/01/18 06:45:24;;;;;;;0.10;0.10;;;;;;;;;;5075134;28;20045;-84
2024/01/18 06:47:50;;;;;;;0.10;0.10;;;;;;;;;;5073398;28;20060;-84
2024/01/18 06:50:16;;;;;;;0.10;0.10;;;;;;;;;;5073386;28;20492;-84
2024/01/18 06:52:42;;;;;;;0.10;0.10;;;;;;;;;;5073590;28;20040;-84
2024/01/18 06:55:11;;;;;;;0.10;0.10;;;;;;;;;;5056882;28;20041;-82
2024/01/18 06:57:37;;;;;;;0.10;0.10;;;;;;;;;;5073357;28;20040;-84
2024/01/18 07:00:03;;;;;;;0.10;0.10;;;;;;;;;;5056999;28;20055;-84
2024/01/18 07:02:29;;;;;;;0.10;0.10;;;;;;;;;;5074572;28;20489;-85
2024/01/18 07:04:55;;;;;;;0.10;0.10;;;;;;;;;;5073354;28;20352;-84
2024/01/18 07:07:23;;;;;;;0.10;0.10;;;;;;;;;;5073277;28;20127;-84
2024/01/18 07:09:49;;;;;;;0.10;0.10;;;;;;;;;;5073118;28;20040;-82
2024/01/18 07:12:16;;;;;;;0.10;0.10;;;;;;;;;;5056805;28;20044;-84
2024/01/18 07:14:43;;;;;;;0.10;0.10;;;;;;;;;;5073488;28;20075;-84
2024/01/18 07:17:12;;;;;;;0.10;0.10;;;;;;;;;;5072963;28;20041;-83
2024/01/18 07:19:38;;;;;;;0.10;0.10;;;;;;;;;;5056359;28;20039;-84
2024/01/18 07:22:04;;;;;;;0.10;0.10;;;;;;;;;;5056358;28;20040;-83
2024/01/18 07:24:30;;;;;;;0.10;0.10;;;;;;;;;;5073053;28;20094;-83
2024/01/18 07:26:59;;;;;;;0.10;0.10;;;;;;;;;;5056354;28;20056;-83
2024/01/18 07:29:25;;;;;;;0.10;0.10;;;;;;;;;;5072837;28;20111;-84
2024/01/18 07:31:51;;;;;;;0.10;0.10;;;;;;;;;;5056251;28;20064;-84
2024/01/18 07:34:17;;;;;;;0.10;0.10;;;;;;;;;;5072655;28;20044;-84
2024/01/18 07:36:43;;;;;;;0.10;0.10;;;;;;;;;;5056190;28;20059;-82
2024/01/18 07:39:13;;;;;;;0.10;0.10;;;;;;;;;;5056120;28;20487;-85
2024/01/18 07:41:38;;;;;;;0.10;0.10;;;;;;;;;;5072610;28;20060;-84
2024/01/18 07:44:04;;;;;;;0.10;0.10;;;;;;;;;;5056124;28;20138;-85
2024/01/18 07:46:30;;;;;;;0.10;0.10;;;;;;;;;;5072697;28;20118;-84
2024/01/18 07:48:57;;;;;;;0.10;0.10;;;;;;;;;;5072282;28;20064;-84
2024/01/18 07:51:23;;;;;;;0.10;0.10;;;;;;;;;;5056071;28;20044;-84
2024/01/18 07:53:49;;;;;;;0.10;0.10;;;;;;;;;;5055856;28;20555;-84
2024/01/18 07:56:15;;;;;;;0.10;0.10;;;;;;;;;;5072287;28;20040;-84
2024/01/18 07:58:43;;;;;;;0.10;0.10;;;;;;;;;;5055902;28;20047;-84
2024/01/18 08:01:09;;;;;;;0.10;0.10;;;;;;;;;;5055839;28;20079;-85
2024/01/18 08:03:35;;;;;;;0.10;0.10;;;;;;;;;;5072093;28;20040;-84
2024/01/18 08:06:01;;;;;;;0.10;0.10;;;;;;;;;;5055658;28;20555;-85
2024/01/18 08:08:27;;;;;;;0.10;0.10;;;;;;;;;;5055583;28;20040;-84
2024/01/18 08:10:53;;;;;;;0.10;0.10;;;;;;;;;;5071900;28;20500;-85
2024/01/18 08:13:19;;;;;;;0.10;0.10;;;;;;;;;;5055565;28;20048;-85
2024/01/18 08:15:45;;;;;;;0.10;0.10;;;;;;;;;;5055351;28;20514;-84
2024/01/18 08:18:13;;;;;;;0.50;0.50;;;;;;;;;;5072102;28;20130;-85
2024/01/18 08:20:39;;;;;;;0.10;0.10;;;;;;;;;;5055426;28;20052;-85
2024/01/18 08:23:05;;;;;;;0.10;0.10;;;;;;;;;;5071786;28;20128;-84
2024/01/18 08:25:31;;;;;;;0.10;0.10;;;;;;;;;;5055446;28;20458;-86
2024/01/18 08:27:57;;;;;;;0.10;0.10;;;;;;;;;;5055300;28;20102;-86
2024/01/18 08:30:24;;;;;;;0.10;0.10;;;;;;;;;;5055116;28;20045;-84
2024/01/18 08:32:50;;;;;;;0.10;0.10;;;;;;;;;;5071606;28;20036;-86
2024/01/18 08:35:16;;;;;;;0.10;0.10;;;;;;;;;;5055095;28;20047;-85
2024/01/18 08:37:42;;;;;;;0.10;0.10;;;;;;;;;;5071622;28;20400;-83
2024/01/18 08:40:08;;;;;;;0.10;0.10;;;;;;;;;;5071476;28;20067;-86
2024/01/18 08:42:35;;;;;;;0.10;0.10;;;;;;;;;;5055312;28;20072;-86
2024/01/18 08:45:01;;;;;;;0.10;0.10;;;;;;;;;;5071628;28;20458;-86
2024/01/18 08:47:27;;;;;;;0.10;0.10;;;;;;;;;;5055136;28;20124;-87
2024/01/18 08:49:53;;;;;;;0.10;0.10;;;;;;;;;;5054907;28;20052;-87
2024/01/18 08:52:19;;;;;;;0.10;0.10;;;;;;;;;;5071824;28;20041;-86
2024/01/18 08:54:45;;;;;;;0.10;0.10;;;;;;;;;;5071693;28;20040;-85
2024/01/18 08:57:11;;;;;;;0.10;0.10;;;;;;;;;;5071360;28;20481;-87
2024/01/18 08:59:37;;;;;;;0.10;0.10;;;;;;;;;;5054760;28;20041;-86
2024/01/18 09:02:03;;;;;;;0.10;0.10;;;;;;;;;;5054768;28;20124;-85
2024/01/18 09:04:30;;;;;;;0.10;0.10;;;;;;;;;;5054775;28;20051;-86
2024/01/18 09:06:56;;;;;;;0.10;0.10;;;;;;;;;;5054793;28;20052;-85
2024/01/18 09:09:22;;;;;;;0.10;0.10;;;;;;;;;;5054502;28;20055;-88
2024/01/18 09:11:48;;;;;;;0.10;0.10;;;;;;;;;;5054257;28;20033;-84
2024/01/18 09:14:14;;;;;;;0.10;0.10;;;;;;;;;;5054263;28;20463;-85
2024/01/18 09:16:40;;;;;;;0.10;0.10;;;;;;;;;;5071045;28;20047;-83
2024/01/18 09:19:06;;;;;;;0.10;0.10;;;;;;;;;;5070854;28;20048;-83
2024/01/18 09:21:32;;;;;;;0.10;0.10;;;;;;;;;;5054212;28;20047;-83
2024/01/18 09:23:58;;;;;;;0.10;0.10;;;;;;;;;;5054213;28;20048;-82
2024/01/18 09:26:24;;;;;;;0.10;0.10;;;;;;;;;;5069431;28;20514;-82
2024/01/18 09:28:50;;;;;;;0.10;0.10;;;;;;;;;;5070043;28;20368;-83
2024/01/18 09:31:16;;;;;;;0.10;0.10;;;;;;;;;;5070247;28;20090;-84
2024/01/18 09:33:42;;;;;;;0.10;0.10;;;;;;;;;;5070449;28;20131;-85
2024/01/18 09:36:08;;;;;;;0.10;0.10;;;;;;;;;;5070411;28;20110;-82
2024/01/18 09:38:35;;;;;;;0.10;0.10;;;;;;;;;;5054038;28;20037;-82
2024/01/18 09:41:05;;;;;;;0.10;0.10;;;;;;;;;;5054048;28;20044;-83
2024/01/18 09:43:33;;;;;;;0.10;0.10;;;;;;;;;;5070888;28;20115;-82
2024/01/18 09:45:59;;;;;;;0.10;0.10;;;;;;;;;;5070501;28;20041;-82
2024/01/18 09:48:25;;;;;;;0.10;0.10;;;;;;;;;;5053729;28;20620;-83
2024/01/18 09:50:52;;;;;;;0.10;0.10;;;;;;;;;;5053767;28;20143;-83
2024/01/18 09:53:18;;;;;;;0.10;0.10;;;;;;;;;;5070292;28;20047;-83
2024/01/18 09:55:44;;;;;;;0.10;0.10;;;;;;;;;;5071668;28;20369;-82
2024/01/18 09:58:13;;;;;;;0.50;0.50;;;;;;;;;;5056043;28;20058;-84
2024/01/18 10:00:45;;;;;;;0.10;0.10;;;;;;;;;;5074322;28;20052;-85
2024/01/18 10:03:11;;;;;;;;;;;;;;;;;;5058182;28;20040;-83
2024/01/18 10:05:37;;;;;;;0.10;0.10;;;;;;;;;;5074345;28;19965;-86
2024/01/18 10:08:04;;;;;;;0.10;0.10;;;;;;;;;;5075715;28;20052;-81
2024/01/18 10:10:30;;;;;;;0.10;0.10;;;;;;;;;;5057796;28;20416;-83
2024/01/18 10:12:56;;;;;;;0.10;0.10;;;;;;;;;;5074256;28;20063;-83
2024/01/18 10:15:35;;;;;;;0.10;0.10;;;;;;;;;;5074095;28;20044;-83
2024/01/18 10:18:04;;;;;;;0.10;0.10;;;;;;;;;;5074623;28;20063;-83
2024/01/18 10:20:30;;;;;;;0.10;0.10;;;;;;;;;;5057573;28;20055;-83
2024/01/18 10:22:56;;;;;;;0.20;0.20;;;;;;;;;;5057479;28;20177;-83
2024/01/18 10:25:26;;;;;;;0.10;0.10;;;;;;;;;;5074111;28;20044;-83
2024/01/18 10:27:55;;;;;;;0.10;0.10;;;;;;;;;;5073996;28;20037;-83
2024/01/18 10:30:21;;;;;;;0.10;0.10;;;;;;;;;;5073838;28;20037;-84
2024/01/18 10:32:47;;;;;;;0.10;0.10;;;;;;;;;;5073838;28;20048;-83
2024/01/18 10:35:26;;;;;;;0.10;0.10;;;;;;;;;;5057195;28;20041;-83
2024/01/18 10:38:06;;;;;;;0.10;0.10;;;;;;;;;;5073857;28;20079;-84
2024/01/18 10:40:33;;;;;;;0.10;0.10;;;;;;;;;;5057399;28;20044;-84
2024/01/18 10:43:00;;;;;;;0.10;0.10;;;;;;;;;;5073963;28;20068;-84
2024/01/18 10:45:30;;;;;;;0.10;0.10;;;;;;;;;;5057027;28;20045;-84
2024/01/18 10:47:56;;;;;;;0.10;0.10;;;;;;;;;;5057057;28;20049;-84
2024/01/18 10:50:23;;;;;;;0.10;0.10;;;;;;;;;;5057297;28;20094;-83
2024/01/18 10:52:49;;;;;;;0.10;0.10;;;;;;;;;;5056964;28;20516;-84
2024/01/18 10:55:16;;;;;;;0.10;0.10;;;;;;;;;;5074958;28;20060;-83
2024/01/18 10:57:42;;;;;;;0.20;0.20;;;;;;;;;;5073632;28;20062;-83
2024/01/18 11:00:09;;;;;;;0.10;0.10;;;;;;;;;;5073333;28;20094;-85
2024/01/18 11:02:40;;;;;;;0.10;0.10;;;;;;;;;;5073663;28;20446;-82
2024/01/18 11:05:09;;;;;;;0.10;0.10;;;;;;;;;;5073562;28;20475;-81
2024/01/18 11:07:37;;;;;;;0.10;0.10;;;;;;;;;;5073020;28;20043;-82
2024/01/18 11:10:10;;;;;;;0.10;0.10;;;;;;;;;;5073155;28;20039;-82
2024/01/18 11:12:37;;;;;;;0.10;0.10;;;;;;;;;;5073274;28;20071;-81
2024/01/18 11:15:03;;;;;;;0.20;0.20;;;;;;;;;;5056806;28;20383;-81
2024/01/18 11:17:29;;;;;;;0.10;0.10;;;;;;;;;;5073865;28;20036;-82
2024/01/18 11:19:57;;;;;;;0.10;0.10;;;;;;;;;;5072817;28;20626;-83
2024/01/18 11:22:24;;;;;;;0.10;0.10;;;;;;;;;;5056745;28;20194;-82
2024/01/18 11:24:50;;;;;;;0.10;0.10;;;;;;;;;;5072929;28;20514;-82
2024/01/18 11:27:20;;;;;;;0.10;0.10;;;;;;;;;;5073094;28;20032;-82
2024/01/18 11:29:47;;;;;;;0.10;0.10;;;;;;;;;;5056346;28;20040;-82
2024/01/18 11:32:16;;;;;;;0.10;0.10;;;;;;;;;;5056564;28;20143;-82
2024/01/18 11:34:42;;;;;;;0.10;0.10;;;;;;;;;;5056948;28;20063;-81
2024/01/18 11:37:11;;;;;;;0.10;0.10;;;;;;;;;;5072751;28;20274;-81
2024/01/18 11:39:50;;;;;;;0.10;0.10;;;;;;;;;;5056270;28;20036;-82
2024/01/18 11:42:44;;;;;;;0.10;0.10;;;;;;;;;;5073408;28;20059;-83
2024/01/18 11:45:17;;;;;;;0.10;0.10;;;;;;;;;;5052683;28;20049;-85
2024/01/18 11:47:43;;;;;;;0.10;0.10;;;;;;;;;;5072826;28;20041;-85
2024/01/18 11:50:11;;;;;;;0.10;0.10;;;;;;;;;;5055996;28;20048;-83
2024/01/18 11:52:38;;;;;;;0.10;0.10;;;;;;;;;;5072546;28;20071;-84
2024/01/18 11:55:05;;;;;;;0.10;0.10;;;;;;;;;;5056100;28;20047;-86
2024/01/18 11:57:32;;;;;;;0.10;0.10;;;;;;;;;;5056104;28;20075;-85
2024/01/18 11:59:58;;;;;;;0.10;0.10;;;;;;;;;;5056758;28;20120;-85
2024/01/18 12:02:31;;;;;;;0.10;0.10;;;;;;;;;;5071988;28;20037;-86
2024/01/18 12:04:57;;;;;;;0.10;0.10;;;;;;;;;;5072042;28;20516;-86
2024/01/18 12:07:23;;;;;;;0.10;0.10;;;;;;;;;;5071971;28;20037;-87
2024/01/18 12:09:50;;;;;;;0.10;0.10;;;;;;;;;;5055395;28;20048;-88
2024/01/18 12:12:16;;;;;;;0.10;0.10;;;;;;;;;;5071908;28;20408;-84
2024/01/18 12:14:43;;;;;;;0.10;0.10;;;;;;;;;;5070237;28;20425;-86
2024/01/18 12:17:09;;;;;;;0.10;0.10;;;;;;;;;;5071381;28;20044;-85
2024/01/18 12:19:40;;;;;;;0.10;0.10;;;;;;;;;;5054851;28;20040;-86
2024/01/18 12:22:10;;;;;;;0.10;0.10;;;;;;;;;;5055236;28;20052;-85
2024/01/18 12:24:36;;;;;;;0.10;0.10;;;;;;;;;;5071574;28;20045;-85
2024/01/18 12:27:02;;;;;;;0.10;0.10;;;;;;;;;;5055210;28;20047;-85
2024/01/18 12:29:28;;;;;;;0.10;0.10;;;;;;;;;;5054746;28;20032;-86
2024/01/18 12:31:55;;;;;;;0.10;0.10;;;;;;;;;;5071321;28;20054;-85
2024/01/18 12:34:21;;;;;;;0.10;0.10;;;;;;;;;;5054773;28;20145;-86
2024/01/18 12:36:47;;;;;;;0.10;0.10;;;;;;;;;;5054890;28;20502;-85
2024/01/18 12:39:13;;;;;;;0.20;0.20;;;;;;;;;;5054802;28;20120;-88
2024/01/18 12:41:39;;;;;;;0.10;0.10;;;;;;;;;;5054704;28;20075;-89
2024/01/18 12:44:09;;;;;;;1.38;0.30;;;;;;;;;;5054696;28;20045;-88
2024/01/18 12:46:38;;;;;;;0.10;0.10;;;;;;;;;;5054726;28;20040;-86
2024/01/18 12:49:04;;;;;;;0.17;0.17;;;;;;;;;;5054441;28;20063;-86
2024/01/18 12:51:30;;;;;;;0.10;0.10;;;;;;;;;;5070418;28;20033;-87
2024/01/18 12:53:56;;;;;;;0.17;0.17;;;;;;;;;;5054772;28;20399;-87
2024/01/18 12:56:23;;;;;;;0.10;0.10;;;;;;;;;;5071183;28;20119;-87
2024/01/18 12:58:49;;;;;;;0.32;0.32;;;;;;;;;;5054880;28;20079;-89
2024/01/18 13:01:28;;;;;;;0.10;0.10;;;;;;;;;;5054583;28;20080;-87
2024/01/18 13:04:13;;;;;;;0.10;0.10;;;;;;;;;;5054588;28;20086;-90
2024/01/18 13:06:44;;;;;;;0.10;0.10;;;;;;;;;;5054698;28;20048;-89
2024/01/18 13:09:10;;;;;;;0.10;0.10;;;;;;;;;;5054582;28;20036;-86
2024/01/18 13:11:37;;;;;;;0.32;0.30;;;;;;;;;;5054375;28;20089;-86
2024/01/18 13:14:06;;;;;;;0.10;0.10;;;;;;;;;;5054519;28;20040;-86
2024/01/18 13:16:33;;;;;;;0.10;0.10;;;;;;;;;;5071054;28;20045;-87
2024/01/18 13:19:02;;;;;;;0.10;0.10;;;;;;;;;;5054318;28;20044;-86
2024/01/18 13:21:29;;;;;;;0.10;0.10;;;;;;;;;;5054571;28;20044;-87
2024/01/18 13:23:55;;;;;;;0.10;0.10;;;;;;;;;;5054188;28;20047;-88
2024/01/18 13:26:21;;;;;;;0.10;0.10;;;;;;;;;;5054415;28;20032;-87
2024/01/18 13:28:47;;;;;;;0.10;0.10;;;;;;;;;;5054857;28;20032;-87
2024/01/18 13:31:13;;;;;;;0.10;0.10;;;;;;;;;;5054135;28;20082;-87
2024/01/18 13:33:39;;;;;;;0.10;0.10;;;;;;;;;;5071155;28;20041;-91
2024/01/18 13:36:06;;;;;;;0.10;0.10;;;;;;;;;;5055300;28;20472;-90
2024/01/18 13:38:33;;;;;;;0.10;0.10;;;;;;;;;;5071323;28;20044;-91
2024/01/18 13:40:59;;;;;;;0.10;0.10;;;;;;;;;;5055041;28;20049;-90
2024/01/18 13:43:25;;;;;;;0.10;0.10;;;;;;;;;;5054788;28;20040;-88
2024/01/18 13:45:52;;;;;;;0.10;0.10;;;;;;;;;;5054349;28;20488;-89
2024/01/18 13:48:18;;;;;;;0.10;0.10;;;;;;;;;;5054462;28;20118;-86
2024/01/18 13:50:44;;;;;;;0.10;0.10;;;;;;;;;;5053909;28;20048;-89
2024/01/18 13:53:14;;;;;;;0.10;0.10;;;;;;;;;;5054268;28;20079;-86
2024/01/18 13:55:40;;;;;;;0.10;0.10;;;;;;;;;;5070486;28;20078;-86
2024/01/18 13:58:07;;;;;;;0.10;0.10;;;;;;;;;;5055304;28;20545;-90
2024/01/18 14:00:34;;;;;;;0.10;0.10;;;;;;;;;;5071225;28;20048;-89
2024/01/18 14:03:00;;;;;;;0.10;0.10;;;;;;;;;;5070899;28;20043;-89
2024/01/18 14:05:30;;;;;;;0.10;0.10;;;;;;;;;;5053766;28;20117;-89
2024/01/18 14:07:57;;;;;;;0.10;0.10;;;;;;;;;;5055050;28;20371;-90
2024/01/18 14:10:23;;;;;;;0.10;0.10;;;;;;;;;;5054641;28;20047;-90
2024/01/18 14:12:49;;;;;;;0.10;0.10;;;;;;;;;;5070680;28;20376;-90
2024/01/18 14:15:15;;;;;;;0.10;0.10;;;;;;;;;;5070737;28;20095;-89
2024/01/18 14:17:41;;;;;;;0.10;0.10;;;;;;;;;;5070859;28;20044;-89
2024/01/18 14:20:09;;;;;;;0.10;0.10;;;;;;;;;;5054152;28;20123;-88
2024/01/18 14:22:35;;;;;;;0.10;0.10;;;;;;;;;;5055797;28;20036;-85
2024/01/18 14:25:01;;;;;;;0.10;0.10;;;;;;;;;;5077918;28;20045;-92
2024/01/18 14:27:28;;;;;;;0.10;0.10;;;;;;;;;;5071615;28;20032;-88
2024/01/18 14:29:54;;;;;;;0.10;0.10;;;;;;;;;;5070803;28;20389;-90
2024/01/18 14:32:20;;;;;;;0.10;0.10;;;;;;;;;;5070744;28;20040;-89
2024/01/18 14:34:46;;;;;;;0.10;0.10;;;;;;;;;;5054199;28;20112;-90
2024/01/18 14:37:12;;;;;;;0.10;0.10;;;;;;;;;;5054496;28;20178;-89
2024/01/18 14:39:38;;;;;;;0.10;0.10;;;;;;;;;;5053921;28;20048;-89